Airport ID:KTSP
Update Time (UTC):10/05/2021 06:44
Wind Speed (Knots):11
Wind Direction (Magnetic):260
Temperature (°C):14.5
Dew Point (°C):1.7
Humidity (%):43.1
Altimeter (inHg):29.95
Density Altitude (Feet):
Visibility (Miles):10
Clouds (Hundreds of feet):CLR
Present Weather:
METAR:METAR KTSP 100640Z AUTO 26013KT 10SM CLR 15/02 A2995 RMK AO2

The data displayed is for advisory purposes only and is not to be used for flight planning or operations.